Trempealeau, WI (54661)

6:36 AM CDT on April 21, 2018 (GMT -0500)
wer main | | Change Station
Active Advisory: Flood Warning

Elev 708 ft 44.01 °N, 91.44 °W | Updated 11 seconds ago

Partly Cloudy
Partly Cloudy
41.0 °F
Feels Like 41 °F
N
0.0
Wind Variable Wind from WNW
Gusts 0.0 mph

Today
High -- | Low -- °F
--% Chance of Precip.
Yesterday
High -- | Low -- °F
Precip. -- in
Pressure 30.44 in
Visibility 10.0 miles
Clouds Clear
Windchill 41 °F
Dew Point 29 °F
Humidity 62%
Rainfall 0.00 in
Snow Depth Not available.
6:12 AM 7:57 PM
Waxing Crescent, 34% visible
METAR KLSE 211053Z 00000KT 10SM CLR 02/M02 A3042 RMK AO2 SLP307 T00221017
Pressure 30.44 in
Visibility 10.0 miles
Clouds Clear
Windchill 41 °F
Dew Point 29 °F
Humidity 62%
Rainfall 0.00 in
Snow Depth Not available.
6:12 AM 7:57 PM
Waxing Crescent, 34% visible
METAR KLSE 211053Z 00000KT 10SM CLR 02/M02 A3042 RMK AO2 SLP307 T00221017

Get Your Daily Forecast Email!

Thanks for signing up!

Be on the lookout for a verification email in your inbox.

You'll start receiving severe weather alerts in your inbox..

×

10-Day Weather Forecast

Almanac

Astronomy

Apr. 21, 2018 Rise Set
Actual Time
Civil Twilight
Nautical Twilight
Astronomical Twilight
Moon
Length of Visible Light
Length of Day
Tomorrow will be .
, % of the Moon is Illuminated

Today's Extremes

State Highs State Lows

Community

WunderPhotos

Category 6

Welcome to Category 6. This is the collective home for Weather Underground's featured writeups by Dr. Jeff Masters (right), Bob Henson (left), Chris Burt, and other regular contributors.

Nearby

Air Quality

  Air Quality AQ Index Pollutant
Not available.

Snow Depth

Station Depth Elevation

Earthquake Activity

City Distance Mag. Time & Date
Minimum magnitude displayed is 2.5.

Coastal Water Temperatures

Place Temperature

Stations

Nearby Weather Stations

Station Location Temp. Windchill Dew Point Humidity Wind Precip. Elev Updated Type
                   

Watches & Warnings

Flood Warning
Issued: 3:23 AM CDT Apr. 21, 2018 – National Weather Service

The Flood Warning continues for
the Trempealeau River at Dodge.
* From this evening to Thursday afternoon... or until the warning is
cancelled.
* At 2:45 am Saturday the stage was 7.1 feet.
* Flood stage is 9.0 feet.
* Minor flooding is forecast.
* Forecast... rise above flood stage by this evening and continue to
rise to near 10.3 feet by Tuesday morning. The river will fall
below flood stage by Wednesday evening.
* Impact... at 9.5 feet... the entrance Road to the Trempealeau National
Wildlife Refuge is flooded.


Lat... Lon 4404 9158 4420 9163 4423 9158 4422 9158 4402 9149